Catacamas, Honduras
Current Conditions -  °F | °C
As of 2:00 PM on Saturday 20 Dec 2014 (Local Time) from MHCA Reporting Station
Scattered Clouds Scattered Clouds  
Wind Chill: 86°   Ceiling: Unl
Heat Index: 92°   Visibility: 6mi
Dew Point: 72°   Wind: 3mph
Humidity: 62%   Direction: 30°NNE
Pressure: 29.94"   Gusts: NA
Location:  14.85°N, 85.89°W
Report Text: MHCA 202000Z 03003KT 9999 SCT030TCU SCT070 30/22 Q1014 TCU ALL
Loading
Personal Weather Stations






























Interactive Weather Map New forecast layout! Learn more

10-Day Weather Forecast

Advertisements
Track Severe Weather on mobile